Pagrindinis puslapis
METAR-TAF:

METAR-TAF

Oro uostai :

Puerto Viljamsas, Čilė

platuma: 54-56-00S, ilguma: 067-37-00W, Aukštis: 27 m

Dabartinis oras

Ataskaita buvo paskelbta 13 valandos ir 54 minutes, ne 20:00 UTC
Vėjas 11 kt iš Vakarų
Temperatūra 3°C
Drėgmė 75%
Slėgis 996 hPa
Matomumas 10 km arba daugiau
Mažai debesys ne aukštis 2000 ft
Išsisklaidę debesys ne aukštis 3600 ft
Su prošvaistėmis ne aukštis 4500 ft

METAR: SCGZ 292000Z 28011KT 9999 FEW020 SCT036 BKN045 03/M01 Q0996

Laikas: 05:54 (09:54 UTC)


TAF: trūkstamas

Orai ataskaitas ir orų prognozės (METAR, TAF).

turimą stotys yra geltonos ir raudonos taškus žemėlapyje.

Perkelti pele per norėdami pamatyti stoties vardą.

Tada spustelėkite, norėdami matyti oro stebėjimo ir prognozės.

Norėdami pakeisti žemėlapį: spustelėkite ant žalios mygtukų su juodo kryžiaus žemyn,; žalią mygtuką su brūkšneliu, jei norite nutolinti; arba žalių rodyklių gretimoms žemėlapius.


METAR-TAF: